This is the latest recevied weather packets stored in our database for station/object IZ5MJO-13. If no packets are shown the sender has not sent any weather packets the latest 10 day(s).
| Time | Temp. | Humidity | Pressure | Rain* | Wind** | Luminosity | Snow |
|---|---|---|---|---|---|---|---|
| 1787787295 | 24.44° C | 51% | 1007.3 hPa | - | - | - | - |
| 1787786395 | 24.44° C | 50% | 1007.4 hPa | - | - | - | - |
| 1787785494 | 24.44° C | 51% | 1007.7 hPa | - | - | - | - |
| 1787784594 | 24.44° C | 50% | 1007.8 hPa | - | - | - | - |
| 1787783694 | 24.44° C | 51% | 1007.7 hPa | - | - | - | - |
| 1787782794 | 24.44° C | 51% | 1007.4 hPa | - | - | - | - |
| 1787781912 | 26.11° C | 49% | 1007.7 hPa | - | - | - | - |
| 1787781893 | 25° C | 51% | 1007.4 hPa | - | - | - | - |
| 1787780993 | 25° C | 52% | 1007.5 hPa | - | - | - | - |
| 1787780093 | 25° C | 53% | 1007.9 hPa | - | - | - | - |
| 1787779193 | 25° C | 53% | 1008 hPa | - | - | - | - |
| 1787778292 | 25° C | 52% | 1008 hPa | - | - | - | - |
| 1787777392 | 25° C | 52% | 1008.1 hPa | - | - | - | - |
| 1787776492 | 25.56° C | 50% | 1007.5 hPa | - | - | - | - |
| 1787775592 | 25° C | 51% | 1007.6 hPa | - | - | - | - |
| 1787774692 | 25.56° C | 50% | 1007.7 hPa | - | - | - | - |
| 1787773791 | 26.11° C | 49% | 1007.7 hPa | - | - | - | - |
| 1787772891 | 26.11° C | 52% | 1007.1 hPa | - | - | - | - |
| 1787772482 | 25.56° C | 53% | 1006.7 hPa | - | - | - | - |
| 1787772426 | 25.56° C | 52% | 1007.1 hPa | - | - | - | - |
| 1787772324 | 25.56° C | 52% | 1007.4 hPa | - | - | - | - |
| 1787772304 | 26.11° C | 51% | 1007.1 hPa | - | - | - | - |
| 1787772208 | 26.11° C | 50% | 1007.2 hPa | - | - | - | - |
| 1787772186 | 26.67° C | 48% | 1006.6 hPa | - | - | - | - |
| 1787771991 | 25.56° C | 53% | 1006.7 hPa | - | - | - | - |
* Rain since midnight (hover to see other rain measurements)
** Current wind speed in m/s (hover to see current wind gust speed)